Flag for Spain

Past Weather in 41°07'02.0"N, 1°15'16.5"E, Spain — Yesterday and Last 2 Weeks

Currently: 82 °F. Passing clouds. (Weather station: Reus / Aeropuerto, Spain). See more current weather

Past Weather in 41°07'02.0"N, 1°15'16.5"E — Graph

°F

41°07'02.0"N, 1°15'16.5"E Temperature Yesterday

Maximum temperature yesterday: 84 °F (at 2:00 pm)
Minimum temperature yesterday: 73 °F (at 3:30 am)
Average temperature yesterday: 78 °F

High & Low Weather Summary for the Past Weeks

 TemperatureHumidityPressure
High88 °F (Jul 12, 12:00 pm)94% (Jul 4, 1:30 am)30.09 "Hg (Jul 4, 1:30 am)
Low61 °F (Jul 3, 7:00 am)32% (Jul 4, 10:30 am)29.80 "Hg (Jul 6, 5:30 am)
Average76 °F73%29.95 "Hg
* Reported Jul 2 5:00 pm — Jul 17 5:30 pm, 41°07'02.0"N, 1°15'16.5"E. Weather by CustomWeather, © 2024

Note: Actual official high and low records may vary slightly from our data, if they occured in-between our weather recording intervals... More about our weather records

41°07'02.0"N, 1°15'16.5"E Weather History for the Previous 24 Hours

Scroll right to see more
 ConditionsComfort  
Time TempWeatherWind HumidityBarometerVisibility
5:30 pm
Wed, Jul 17
82 °FPassing clouds.10 mph58%30.07 "HgN/A
5:00 pm82 °FPassing clouds.12 mph58%30.07 "HgN/A
4:30 pm82 °FPassing clouds.12 mph58%30.07 "HgN/A
4:00 pm82 °FPassing clouds.9 mph62%30.07 "HgN/A
3:00 pm84 °FPassing clouds.9 mph58%30.09 "HgN/A
2:30 pm84 °FPassing clouds.8 mph55%30.09 "HgN/A
2:00 pm84 °FSunny.9 mph55%30.09 "Hg10 mi
1:30 pm86 °FPassing clouds.9 mph49%30.09 "HgN/A
1:00 pm86 °FSunny.7 mph49%30.09 "Hg10 mi
12:30 pm84 °FPassing clouds.8 mph51%30.09 "HgN/A
12:00 pm84 °FPassing clouds.7 mph51%30.09 "HgN/A
11:30 am84 °FSunny.6 mph51%30.09 "Hg10 mi
11:00 am84 °FPassing clouds.5 mph48%30.09 "HgN/A
10:30 am82 °FSunny.3 mph51%30.09 "Hg10 mi
10:00 am82 °FPassing clouds.5 mph51%30.09 "HgN/A
9:30 am81 °FSunny.2 mph54%30.09 "Hg10 mi
9:00 am79 °FSunny.2 mph58%30.09 "Hg10 mi
8:30 am75 °FPassing clouds.3 mph65%30.09 "HgN/A
8:00 am73 °FSunny.7 mph65%30.09 "Hg10 mi
7:30 am72 °FSunny.7 mph69%30.07 "Hg10 mi
7:00 am70 °FSunny.6 mph73%30.07 "Hg10 mi
6:30 am70 °FClear.7 mph73%30.07 "Hg10 mi
6:00 am70 °FPassing clouds.5 mph78%30.07 "HgN/A
5:30 am70 °FClear.5 mph78%30.07 "Hg10 mi
5:00 am70 °FClear.6 mph78%30.04 "Hg10 mi
4:30 am68 °FClear.5 mph83%30.04 "Hg10 mi
4:00 am68 °FClear.No wind88%30.04 "Hg10 mi
3:30 am70 °FClear.1 mph83%30.04 "Hg10 mi
3:00 am72 °FPassing clouds.3 mph78%30.04 "HgN/A
2:30 am75 °FClear.2 mph74%30.04 "Hg10 mi
2:00 am75 °FClear.3 mph74%30.04 "Hg10 mi
1:30 am75 °FClear.3 mph74%30.07 "Hg10 mi
1:00 am75 °FPassing clouds.3 mph78%30.07 "HgN/A
12:30 am75 °FPassing clouds.3 mph78%30.07 "HgN/A
12:00 am75 °FPassing clouds.3 mph78%30.04 "HgN/A
11:30 pm
Tue, Jul 16
75 °FPassing clouds.5 mph78%30.04 "HgN/A
11:00 pm75 °FPassing clouds.2 mph78%30.04 "HgN/A
10:30 pm75 °FPassing clouds.3 mph78%30.04 "HgN/A
10:00 pm75 °FPassing clouds.3 mph83%30.01 "HgN/A
9:00 pm77 °FPassing clouds.3 mph79%30.01 "HgN/A
8:30 pm79 °FPassing clouds.3 mph74%30.01 "HgN/A
8:00 pm79 °FScattered clouds.5 mph74%30.01 "HgN/A
7:30 pm79 °FPartly sunny.5 mph74%30.01 "HgN/A
7:00 pm79 °FPartly sunny.6 mph74%30.01 "HgN/A
6:30 pm81 °FScattered clouds.7 mph70%30.01 "HgN/A
6:00 pm82 °FScattered clouds.7 mph70%30.01 "HgN/A
Weather by CustomWeather, © 2024

See weather overview